sensor_id;sensor_type;location;lat;lon;timestamp;P1;durP1;ratioP1;P2;durP2;ratioP2
12601;SDS011;30282;16.436;99.370;2023-07-29T00:02:15;20.03;;;6.37;;
12601;SDS011;30282;16.436;99.370;2023-07-29T00:04:45;25.63;;;5.17;;
12601;SDS011;30282;16.436;99.370;2023-07-29T00:07:15;23.10;;;5.57;;
12601;SDS011;30282;16.436;99.370;2023-07-29T00:09:44;17.40;;;5.67;;
12601;SDS011;30282;16.436;99.370;2023-07-29T00:12:15;14.87;;;6.27;;
12601;SDS011;30282;16.436;99.370;2023-07-29T00:14:44;13.67;;;5.63;;
12601;SDS011;30282;16.436;99.370;2023-07-29T00:17:13;12.17;;;5.20;;
12601;SDS011;30282;16.436;99.370;2023-07-29T00:19:42;13.37;;;5.43;;
12601;SDS011;30282;16.436;99.370;2023-07-29T00:22:11;12.60;;;5.20;;
12601;SDS011;30282;16.436;99.370;2023-07-29T00:24:41;16.20;;;5.90;;
12601;SDS011;30282;16.436;99.370;2023-07-29T00:27:11;22.80;;;6.13;;
12601;SDS011;30282;16.436;99.370;2023-07-29T00:29:40;13.77;;;5.73;;
12601;SDS011;30282;16.436;99.370;2023-07-29T00:32:09;15.97;;;6.00;;
12601;SDS011;30282;16.436;99.370;2023-07-29T00:34:41;13.47;;;6.40;;
12601;SDS011;30282;16.436;99.370;2023-07-29T00:37:10;14.90;;;5.20;;
12601;SDS011;30282;16.436;99.370;2023-07-29T00:39:39;16.80;;;4.70;;
12601;SDS011;30282;16.436;99.370;2023-07-29T00:42:13;16.40;;;5.33;;
12601;SDS011;30282;16.436;99.370;2023-07-29T00:44:42;13.40;;;4.20;;
12601;SDS011;30282;16.436;99.370;2023-07-29T00:47:11;12.83;;;5.50;;
12601;SDS011;30282;16.436;99.370;2023-07-29T00:49:42;9.47;;;4.47;;
12601;SDS011;30282;16.436;99.370;2023-07-29T00:52:12;9.47;;;4.67;;
12601;SDS011;30282;16.436;99.370;2023-07-29T00:54:42;10.87;;;4.23;;
12601;SDS011;30282;16.436;99.370;2023-07-29T00:57:11;15.30;;;5.10;;
12601;SDS011;30282;16.436;99.370;2023-07-29T00:59:44;14.80;;;5.20;;
12601;SDS011;30282;16.436;99.370;2023-07-29T01:02:13;16.00;;;5.33;;
12601;SDS011;30282;16.436;99.370;2023-07-29T01:04:43;16.10;;;5.70;;
12601;SDS011;30282;16.436;99.370;2023-07-29T01:07:13;14.60;;;6.13;;
12601;SDS011;30282;16.436;99.370;2023-07-29T01:09:50;14.73;;;6.37;;
12601;SDS011;30282;16.436;99.370;2023-07-29T01:12:27;14.13;;;4.47;;
12601;SDS011;30282;16.436;99.370;2023-07-29T01:15:09;14.33;;;5.23;;
12601;SDS011;30282;16.436;99.370;2023-07-29T01:17:43;12.37;;;5.17;;
12601;SDS011;30282;16.436;99.370;2023-07-29T01:20:17;10.80;;;4.57;;
12601;SDS011;30282;16.436;99.370;2023-07-29T01:22:47;8.83;;;4.50;;
12601;SDS011;30282;16.436;99.370;2023-07-29T01:25:18;11.03;;;4.23;;
12601;SDS011;30282;16.436;99.370;2023-07-29T01:27:51;10.30;;;3.60;;
12601;SDS011;30282;16.436;99.370;2023-07-29T01:30:21;8.80;;;3.70;;
12601;SDS011;30282;16.436;99.370;2023-07-29T01:33:01;7.77;;;3.57;;
12601;SDS011;30282;16.436;99.370;2023-07-29T01:35:39;13.97;;;4.70;;
12601;SDS011;30282;16.436;99.370;2023-07-29T01:38:13;9.40;;;4.43;;
12601;SDS011;30282;16.436;99.370;2023-07-29T01:40:47;9.80;;;3.87;;
12601;SDS011;30282;16.436;99.370;2023-07-29T01:43:18;9.63;;;3.27;;
12601;SDS011;30282;16.436;99.370;2023-07-29T01:45:49;9.87;;;3.80;;
12601;SDS011;30282;16.436;99.370;2023-07-29T01:48:18;17.50;;;4.93;;
12601;SDS011;30282;16.436;99.370;2023-07-29T01:50:47;11.23;;;2.70;;
12601;SDS011;30282;16.436;99.370;2023-07-29T01:53:17;8.33;;;3.60;;
12601;SDS011;30282;16.436;99.370;2023-07-29T01:55:48;10.63;;;3.60;;
12601;SDS011;30282;16.436;99.370;2023-07-29T01:58:17;14.13;;;3.40;;
12601;SDS011;30282;16.436;99.370;2023-07-29T02:00:48;12.00;;;2.90;;
12601;SDS011;30282;16.436;99.370;2023-07-29T02:03:17;10.20;;;3.63;;
12601;SDS011;30282;16.436;99.370;2023-07-29T02:05:46;10.13;;;4.20;;
12601;SDS011;30282;16.436;99.370;2023-07-29T02:08:15;7.90;;;3.17;;
12601;SDS011;30282;16.436;99.370;2023-07-29T02:10:47;10.23;;;3.40;;
12601;SDS011;30282;16.436;99.370;2023-07-29T02:13:31;8.87;;;3.67;;
12601;SDS011;30282;16.436;99.370;2023-07-29T02:16:00;9.43;;;3.30;;
12601;SDS011;30282;16.436;99.370;2023-07-29T02:18:31;11.63;;;3.70;;
12601;SDS011;30282;16.436;99.370;2023-07-29T02:21:05;11.70;;;5.03;;
12601;SDS011;30282;16.436;99.370;2023-07-29T02:23:34;13.30;;;3.77;;
12601;SDS011;30282;16.436;99.370;2023-07-29T02:26:05;7.90;;;2.87;;
12601;SDS011;30282;16.436;99.370;2023-07-29T02:28:34;10.80;;;4.20;;
12601;SDS011;30282;16.436;99.370;2023-07-29T02:31:12;7.30;;;3.00;;
12601;SDS011;30282;16.436;99.370;2023-07-29T02:33:43;13.70;;;3.07;;
12601;SDS011;30282;16.436;99.370;2023-07-29T02:36:12;17.33;;;4.20;;
12601;SDS011;30282;16.436;99.370;2023-07-29T02:38:41;7.60;;;3.30;;
12601;SDS011;30282;16.436;99.370;2023-07-29T02:41:12;14.17;;;3.60;;
12601;SDS011;30282;16.436;99.370;2023-07-29T02:43:42;9.87;;;3.53;;
12601;SDS011;30282;16.436;99.370;2023-07-29T02:46:11;5.43;;;2.67;;
12601;SDS011;30282;16.436;99.370;2023-07-29T02:48:41;9.67;;;3.03;;
12601;SDS011;30282;16.436;99.370;2023-07-29T02:51:10;6.97;;;2.97;;
12601;SDS011;30282;16.436;99.370;2023-07-29T02:53:39;14.27;;;2.83;;
12601;SDS011;30282;16.436;99.370;2023-07-29T02:56:08;7.27;;;3.00;;
12601;SDS011;30282;16.436;99.370;2023-07-29T02:58:39;8.73;;;2.70;;
12601;SDS011;30282;16.436;99.370;2023-07-29T03:01:08;6.60;;;3.10;;
12601;SDS011;30282;16.436;99.370;2023-07-29T03:03:38;5.47;;;2.50;;
12601;SDS011;30282;16.436;99.370;2023-07-29T03:06:08;8.70;;;2.50;;
12601;SDS011;30282;16.436;99.370;2023-07-29T03:08:38;8.93;;;4.20;;
12601;SDS011;30282;16.436;99.370;2023-07-29T03:11:07;10.57;;;5.20;;
12601;SDS011;30282;16.436;99.370;2023-07-29T03:13:39;12.83;;;5.53;;
12601;SDS011;30282;16.436;99.370;2023-07-29T03:16:08;15.47;;;6.10;;
12601;SDS011;30282;16.436;99.370;2023-07-29T03:18:56;9.70;;;4.60;;
12601;SDS011;30282;16.436;99.370;2023-07-29T03:21:26;12.17;;;5.40;;
12601;SDS011;30282;16.436;99.370;2023-07-29T03:24:08;10.53;;;4.40;;
12601;SDS011;30282;16.436;99.370;2023-07-29T03:26:38;9.00;;;4.33;;
12601;SDS011;30282;16.436;99.370;2023-07-29T03:29:12;10.90;;;4.50;;
12601;SDS011;30282;16.436;99.370;2023-07-29T03:31:42;8.00;;;3.57;;
12601;SDS011;30282;16.436;99.370;2023-07-29T03:34:11;8.60;;;3.70;;
12601;SDS011;30282;16.436;99.370;2023-07-29T03:36:40;11.57;;;2.67;;
12601;SDS011;30282;16.436;99.370;2023-07-29T03:39:11;10.60;;;2.97;;
12601;SDS011;30282;16.436;99.370;2023-07-29T03:41:40;7.87;;;2.50;;
12601;SDS011;30282;16.436;99.370;2023-07-29T03:44:11;6.83;;;2.87;;
12601;SDS011;30282;16.436;99.370;2023-07-29T03:46:40;8.60;;;2.70;;
12601;SDS011;30282;16.436;99.370;2023-07-29T03:49:09;12.47;;;2.80;;
12601;SDS011;30282;16.436;99.370;2023-07-29T03:51:39;12.70;;;3.27;;
12601;SDS011;30282;16.436;99.370;2023-07-29T03:54:08;12.00;;;2.77;;
12601;SDS011;30282;16.436;99.370;2023-07-29T03:56:37;8.70;;;2.60;;
12601;SDS011;30282;16.436;99.370;2023-07-29T03:59:06;7.67;;;2.50;;
12601;SDS011;30282;16.436;99.370;2023-07-29T04:01:36;5.10;;;2.40;;
12601;SDS011;30282;16.436;99.370;2023-07-29T04:04:06;11.70;;;4.00;;
12601;SDS011;30282;16.436;99.370;2023-07-29T04:06:35;11.33;;;4.07;;
12601;SDS011;30282;16.436;99.370;2023-07-29T04:09:04;8.60;;;2.77;;
12601;SDS011;30282;16.436;99.370;2023-07-29T04:11:33;8.77;;;2.70;;
12601;SDS011;30282;16.436;99.370;2023-07-29T04:14:03;6.63;;;2.97;;
12601;SDS011;30282;16.436;99.370;2023-07-29T04:16:32;7.67;;;2.47;;
12601;SDS011;30282;16.436;99.370;2023-07-29T04:19:03;10.93;;;3.00;;
12601;SDS011;30282;16.436;99.370;2023-07-29T04:21:32;8.90;;;3.27;;
12601;SDS011;30282;16.436;99.370;2023-07-29T04:24:01;7.00;;;3.30;;
12601;SDS011;30282;16.436;99.370;2023-07-29T04:26:30;5.20;;;1.93;;
12601;SDS011;30282;16.436;99.370;2023-07-29T04:28:59;9.80;;;2.57;;
12601;SDS011;30282;16.436;99.370;2023-07-29T04:31:29;7.30;;;2.30;;
12601;SDS011;30282;16.436;99.370;2023-07-29T04:33:58;5.70;;;2.67;;
12601;SDS011;30282;16.436;99.370;2023-07-29T04:36:28;4.90;;;1.80;;
12601;SDS011;30282;16.436;99.370;2023-07-29T04:38:58;5.23;;;2.20;;
12601;SDS011;30282;16.436;99.370;2023-07-29T04:41:29;5.50;;;1.87;;
12601;SDS011;30282;16.436;99.370;2023-07-29T04:43:58;9.03;;;2.10;;
12601;SDS011;30282;16.436;99.370;2023-07-29T04:46:27;4.20;;;1.80;;
12601;SDS011;30282;16.436;99.370;2023-07-29T04:48:57;6.17;;;2.63;;
12601;SDS011;30282;16.436;99.370;2023-07-29T04:51:26;4.50;;;1.70;;
12601;SDS011;30282;16.436;99.370;2023-07-29T04:53:57;6.90;;;2.37;;
12601;SDS011;30282;16.436;99.370;2023-07-29T04:56:26;5.77;;;2.57;;
12601;SDS011;30282;16.436;99.370;2023-07-29T04:58:55;10.77;;;2.43;;
12601;SDS011;30282;16.436;99.370;2023-07-29T05:01:24;9.40;;;2.03;;
12601;SDS011;30282;16.436;99.370;2023-07-29T05:03:53;5.07;;;2.20;;
12601;SDS011;30282;16.436;99.370;2023-07-29T05:06:25;7.17;;;3.67;;
12601;SDS011;30282;16.436;99.370;2023-07-29T05:08:57;5.93;;;2.63;;
12601;SDS011;30282;16.436;99.370;2023-07-29T05:11:26;12.40;;;3.20;;
12601;SDS011;30282;16.436;99.370;2023-07-29T05:13:55;6.07;;;3.43;;
12601;SDS011;30282;16.436;99.370;2023-07-29T05:16:24;8.90;;;4.00;;
12601;SDS011;30282;16.436;99.370;2023-07-29T05:18:53;6.47;;;3.30;;
12601;SDS011;30282;16.436;99.370;2023-07-29T05:21:24;11.10;;;3.20;;
12601;SDS011;30282;16.436;99.370;2023-07-29T05:23:55;6.30;;;3.03;;
12601;SDS011;30282;16.436;99.370;2023-07-29T05:26:24;6.43;;;2.70;;
12601;SDS011;30282;16.436;99.370;2023-07-29T05:28:53;5.10;;;2.50;;
12601;SDS011;30282;16.436;99.370;2023-07-29T05:31:23;6.17;;;2.83;;
12601;SDS011;30282;16.436;99.370;2023-07-29T05:33:58;5.43;;;3.03;;
12601;SDS011;30282;16.436;99.370;2023-07-29T05:36:27;7.90;;;3.27;;
12601;SDS011;30282;16.436;99.370;2023-07-29T05:38:59;8.53;;;4.07;;
12601;SDS011;30282;16.436;99.370;2023-07-29T05:41:31;7.60;;;3.20;;
12601;SDS011;30282;16.436;99.370;2023-07-29T05:44:00;9.40;;;3.00;;
12601;SDS011;30282;16.436;99.370;2023-07-29T05:46:32;8.27;;;3.30;;
12601;SDS011;30282;16.436;99.370;2023-07-29T05:49:03;7.00;;;4.40;;
12601;SDS011;30282;16.436;99.370;2023-07-29T05:51:32;8.60;;;3.50;;
12601;SDS011;30282;16.436;99.370;2023-07-29T05:54:01;9.00;;;1.93;;
12601;SDS011;30282;16.436;99.370;2023-07-29T05:56:30;4.10;;;1.67;;
12601;SDS011;30282;16.436;99.370;2023-07-29T05:58:59;5.33;;;1.67;;
12601;SDS011;30282;16.436;99.370;2023-07-29T06:01:28;5.23;;;2.23;;
12601;SDS011;30282;16.436;99.370;2023-07-29T06:03:58;4.60;;;1.73;;
12601;SDS011;30282;16.436;99.370;2023-07-29T06:06:27;5.80;;;2.07;;
12601;SDS011;30282;16.436;99.370;2023-07-29T06:08:56;6.53;;;2.83;;
12601;SDS011;30282;16.436;99.370;2023-07-29T06:11:27;4.30;;;2.30;;
12601;SDS011;30282;16.436;99.370;2023-07-29T06:13:56;4.40;;;2.07;;
12601;SDS011;30282;16.436;99.370;2023-07-29T06:16:25;5.20;;;1.90;;
12601;SDS011;30282;16.436;99.370;2023-07-29T06:18:54;3.80;;;1.30;;
12601;SDS011;30282;16.436;99.370;2023-07-29T06:21:23;6.27;;;1.60;;
12601;SDS011;30282;16.436;99.370;2023-07-29T06:23:52;3.43;;;1.50;;
12601;SDS011;30282;16.436;99.370;2023-07-29T06:26:26;5.03;;;1.57;;
12601;SDS011;30282;16.436;99.370;2023-07-29T06:28:57;5.90;;;1.73;;
12601;SDS011;30282;16.436;99.370;2023-07-29T06:31:29;5.00;;;1.50;;
12601;SDS011;30282;16.436;99.370;2023-07-29T06:33:58;3.00;;;1.17;;
12601;SDS011;30282;16.436;99.370;2023-07-29T06:36:27;2.73;;;1.00;;
12601;SDS011;30282;16.436;99.370;2023-07-29T06:38:56;2.70;;;0.90;;
12601;SDS011;30282;16.436;99.370;2023-07-29T06:41:26;3.37;;;0.90;;
12601;SDS011;30282;16.436;99.370;2023-07-29T06:44:04;6.00;;;1.20;;
12601;SDS011;30282;16.436;99.370;2023-07-29T06:46:39;2.97;;;1.00;;
12601;SDS011;30282;16.436;99.370;2023-07-29T06:49:08;2.97;;;0.90;;
12601;SDS011;30282;16.436;99.370;2023-07-29T06:51:37;2.13;;;0.67;;
12601;SDS011;30282;16.436;99.370;2023-07-29T06:54:06;3.47;;;0.70;;
12601;SDS011;30282;16.436;99.370;2023-07-29T06:56:35;2.83;;;0.70;;
12601;SDS011;30282;16.436;99.370;2023-07-29T06:59:06;4.63;;;0.70;;
12601;SDS011;30282;16.436;99.370;2023-07-29T07:01:35;3.70;;;0.70;;
12601;SDS011;30282;16.436;99.370;2023-07-29T07:04:04;3.70;;;0.67;;
12601;SDS011;30282;16.436;99.370;2023-07-29T07:06:33;2.40;;;0.60;;
12601;SDS011;30282;16.436;99.370;2023-07-29T07:09:03;2.30;;;0.70;;
12601;SDS011;30282;16.436;99.370;2023-07-29T07:11:32;2.20;;;0.70;;
12601;SDS011;30282;16.436;99.370;2023-07-29T07:14:01;4.90;;;0.73;;
12601;SDS011;30282;16.436;99.370;2023-07-29T07:16:33;5.57;;;1.10;;
12601;SDS011;30282;16.436;99.370;2023-07-29T07:19:02;4.30;;;2.00;;
12601;SDS011;30282;16.436;99.370;2023-07-29T07:21:31;4.40;;;2.03;;
12601;SDS011;30282;16.436;99.370;2023-07-29T07:24:06;10.47;;;0.90;;
12601;SDS011;30282;16.436;99.370;2023-07-29T07:26:35;5.13;;;2.40;;
12601;SDS011;30282;16.436;99.370;2023-07-29T07:29:04;3.80;;;1.20;;
12601;SDS011;30282;16.436;99.370;2023-07-29T07:31:35;4.70;;;1.50;;
12601;SDS011;30282;16.436;99.370;2023-07-29T07:34:04;3.90;;;1.73;;
12601;SDS011;30282;16.436;99.370;2023-07-29T07:36:33;5.60;;;2.27;;
12601;SDS011;30282;16.436;99.370;2023-07-29T07:39:02;3.20;;;1.13;;
12601;SDS011;30282;16.436;99.370;2023-07-29T07:41:31;5.63;;;2.00;;
12601;SDS011;30282;16.436;99.370;2023-07-29T07:44:01;3.77;;;1.70;;
12601;SDS011;30282;16.436;99.370;2023-07-29T07:46:30;3.80;;;1.60;;
12601;SDS011;30282;16.436;99.370;2023-07-29T07:49:01;4.97;;;1.43;;
12601;SDS011;30282;16.436;99.370;2023-07-29T07:51:30;3.77;;;1.10;;
12601;SDS011;30282;16.436;99.370;2023-07-29T07:54:04;3.50;;;1.13;;
12601;SDS011;30282;16.436;99.370;2023-07-29T07:56:33;6.77;;;1.80;;
12601;SDS011;30282;16.436;99.370;2023-07-29T07:59:02;4.27;;;2.03;;
12601;SDS011;30282;16.436;99.370;2023-07-29T08:01:34;4.50;;;1.70;;
12601;SDS011;30282;16.436;99.370;2023-07-29T08:04:05;4.53;;;1.60;;
12601;SDS011;30282;16.436;99.370;2023-07-29T08:06:34;7.07;;;1.60;;
12601;SDS011;30282;16.436;99.370;2023-07-29T08:09:03;4.17;;;1.70;;
12601;SDS011;30282;16.436;99.370;2023-07-29T08:11:32;12.53;;;1.83;;
12601;SDS011;30282;16.436;99.370;2023-07-29T08:14:02;3.80;;;1.50;;
12601;SDS011;30282;16.436;99.370;2023-07-29T08:16:33;7.40;;;1.90;;
12601;SDS011;30282;16.436;99.370;2023-07-29T08:19:02;8.50;;;1.63;;
12601;SDS011;30282;16.436;99.370;2023-07-29T08:21:35;3.27;;;1.50;;
12601;SDS011;30282;16.436;99.370;2023-07-29T08:24:04;8.93;;;1.73;;
12601;SDS011;30282;16.436;99.370;2023-07-29T08:26:33;12.40;;;2.10;;
12601;SDS011;30282;16.436;99.370;2023-07-29T08:29:02;9.83;;;1.77;;
12601;SDS011;30282;16.436;99.370;2023-07-29T08:31:31;3.60;;;1.53;;
12601;SDS011;30282;16.436;99.370;2023-07-29T08:34:00;8.73;;;1.83;;
12601;SDS011;30282;16.436;99.370;2023-07-29T08:36:31;7.13;;;2.43;;
12601;SDS011;30282;16.436;99.370;2023-07-29T08:39:01;5.57;;;1.73;;
12601;SDS011;30282;16.436;99.370;2023-07-29T08:41:35;5.00;;;1.60;;
12601;SDS011;30282;16.436;99.370;2023-07-29T08:44:09;5.90;;;1.47;;
12601;SDS011;30282;16.436;99.370;2023-07-29T08:46:47;5.80;;;1.70;;
12601;SDS011;30282;16.436;99.370;2023-07-29T08:49:17;4.40;;;1.30;;
12601;SDS011;30282;16.436;99.370;2023-07-29T08:51:50;8.13;;;1.57;;
12601;SDS011;30282;16.436;99.370;2023-07-29T08:54:22;4.00;;;1.10;;
12601;SDS011;30282;16.436;99.370;2023-07-29T08:56:51;5.47;;;1.50;;
12601;SDS011;30282;16.436;99.370;2023-07-29T08:59:21;9.23;;;1.30;;
12601;SDS011;30282;16.436;99.370;2023-07-29T09:01:51;4.70;;;1.17;;
12601;SDS011;30282;16.436;99.370;2023-07-29T09:04:22;4.10;;;0.97;;
12601;SDS011;30282;16.436;99.370;2023-07-29T09:06:53;2.53;;;0.80;;
12601;SDS011;30282;16.436;99.370;2023-07-29T09:09:23;2.70;;;1.20;;
12601;SDS011;30282;16.436;99.370;2023-07-29T09:11:53;4.07;;;1.17;;
12601;SDS011;30282;16.436;99.370;2023-07-29T09:14:22;3.70;;;1.00;;
12601;SDS011;30282;16.436;99.370;2023-07-29T09:16:52;2.87;;;1.10;;
12601;SDS011;30282;16.436;99.370;2023-07-29T09:19:24;3.23;;;1.00;;
12601;SDS011;30282;16.436;99.370;2023-07-29T09:21:55;5.00;;;1.53;;
12601;SDS011;30282;16.436;99.370;2023-07-29T09:24:25;11.93;;;1.73;;
12601;SDS011;30282;16.436;99.370;2023-07-29T09:26:55;3.10;;;1.00;;
12601;SDS011;30282;16.436;99.370;2023-07-29T09:29:24;3.00;;;0.83;;
12601;SDS011;30282;16.436;99.370;2023-07-29T09:34:48;3.83;;;0.70;;
12601;SDS011;30282;16.436;99.370;2023-07-29T09:37:22;4.40;;;0.70;;
12601;SDS011;30282;16.436;99.370;2023-07-29T09:39:51;3.00;;;0.80;;
12601;SDS011;30282;16.436;99.370;2023-07-29T09:42:24;2.60;;;0.60;;
12601;SDS011;30282;16.436;99.370;2023-07-29T09:44:54;2.07;;;0.60;;
12601;SDS011;30282;16.436;99.370;2023-07-29T09:47:23;3.17;;;0.70;;
12601;SDS011;30282;16.436;99.370;2023-07-29T09:49:53;3.37;;;0.63;;
12601;SDS011;30282;16.436;99.370;2023-07-29T09:52:24;2.03;;;0.60;;
12601;SDS011;30282;16.436;99.370;2023-07-29T09:54:53;2.40;;;0.60;;
12601;SDS011;30282;16.436;99.370;2023-07-29T09:57:23;2.00;;;0.60;;
12601;SDS011;30282;16.436;99.370;2023-07-29T09:59:55;4.03;;;0.80;;
12601;SDS011;30282;16.436;99.370;2023-07-29T10:02:30;8.40;;;0.70;;
12601;SDS011;30282;16.436;99.370;2023-07-29T10:05:01;3.23;;;0.70;;
12601;SDS011;30282;16.436;99.370;2023-07-29T10:07:33;3.70;;;0.73;;
12601;SDS011;30282;16.436;99.370;2023-07-29T10:10:04;3.53;;;0.80;;
12601;SDS011;30282;16.436;99.370;2023-07-29T10:12:39;2.67;;;0.80;;
12601;SDS011;30282;16.436;99.370;2023-07-29T10:15:12;3.87;;;0.80;;
12601;SDS011;30282;16.436;99.370;2023-07-29T10:17:41;2.13;;;0.60;;
12601;SDS011;30282;16.436;99.370;2023-07-29T10:20:10;6.33;;;0.87;;
12601;SDS011;30282;16.436;99.370;2023-07-29T10:22:42;2.73;;;0.60;;
12601;SDS011;30282;16.436;99.370;2023-07-29T10:25:15;8.90;;;1.23;;
12601;SDS011;30282;16.436;99.370;2023-07-29T10:27:47;10.00;;;0.97;;
12601;SDS011;30282;16.436;99.370;2023-07-29T10:30:20;16.70;;;1.23;;
12601;SDS011;30282;16.436;99.370;2023-07-29T10:32:49;3.10;;;0.73;;
12601;SDS011;30282;16.436;99.370;2023-07-29T10:35:19;2.20;;;0.70;;
12601;SDS011;30282;16.436;99.370;2023-07-29T10:37:50;5.13;;;1.00;;
12601;SDS011;30282;16.436;99.370;2023-07-29T10:40:19;8.13;;;1.00;;
12601;SDS011;30282;16.436;99.370;2023-07-29T10:45:40;6.70;;;1.03;;
12601;SDS011;30282;16.436;99.370;2023-07-29T10:48:13;4.57;;;0.90;;
12601;SDS011;30282;16.436;99.370;2023-07-29T10:51:28;8.50;;;0.70;;
12601;SDS011;30282;16.436;99.370;2023-07-29T10:54:00;2.10;;;0.60;;
12601;SDS011;30282;16.436;99.370;2023-07-29T10:56:31;4.57;;;0.77;;
12601;SDS011;30282;16.436;99.370;2023-07-29T10:59:03;4.10;;;0.90;;
12601;SDS011;30282;16.436;99.370;2023-07-29T11:02:02;2.90;;;0.70;;
12601;SDS011;30282;16.436;99.370;2023-07-29T11:04:50;14.80;;;1.00;;
12601;SDS011;30282;16.436;99.370;2023-07-29T11:07:22;4.83;;;1.40;;
12601;SDS011;30282;16.436;99.370;2023-07-29T11:10:03;10.13;;;1.40;;
12601;SDS011;30282;16.436;99.370;2023-07-29T11:12:42;7.30;;;1.30;;
12601;SDS011;30282;16.436;99.370;2023-07-29T11:15:14;20.43;;;2.13;;
12601;SDS011;30282;16.436;99.370;2023-07-29T11:17:45;5.90;;;1.03;;
12601;SDS011;30282;16.436;99.370;2023-07-29T11:20:15;7.73;;;1.40;;
12601;SDS011;30282;16.436;99.370;2023-07-29T11:22:45;4.40;;;1.77;;
12601;SDS011;30282;16.436;99.370;2023-07-29T11:25:16;2.93;;;1.10;;
12601;SDS011;30282;16.436;99.370;2023-07-29T11:27:46;6.13;;;1.80;;
12601;SDS011;30282;16.436;99.370;2023-07-29T11:30:15;16.47;;;1.73;;
12601;SDS011;30282;16.436;99.370;2023-07-29T11:32:46;7.70;;;1.47;;
12601;SDS011;30282;16.436;99.370;2023-07-29T11:35:23;5.67;;;1.23;;
12601;SDS011;30282;16.436;99.370;2023-07-29T11:37:54;9.00;;;1.60;;
12601;SDS011;30282;16.436;99.370;2023-07-29T11:40:25;5.67;;;1.30;;
12601;SDS011;30282;16.436;99.370;2023-07-29T11:42:57;5.33;;;1.20;;
12601;SDS011;30282;16.436;99.370;2023-07-29T11:45:27;6.03;;;1.20;;
12601;SDS011;30282;16.436;99.370;2023-07-29T11:47:56;9.90;;;1.20;;
12601;SDS011;30282;16.436;99.370;2023-07-29T11:50:25;5.27;;;1.50;;
12601;SDS011;30282;16.436;99.370;2023-07-29T11:52:55;10.60;;;2.53;;
12601;SDS011;30282;16.436;99.370;2023-07-29T11:55:26;12.43;;;2.77;;
12601;SDS011;30282;16.436;99.370;2023-07-29T11:57:55;12.73;;;3.17;;
12601;SDS011;30282;16.436;99.370;2023-07-29T12:00:25;9.77;;;3.27;;
12601;SDS011;30282;16.436;99.370;2023-07-29T12:02:54;12.67;;;6.50;;
12601;SDS011;30282;16.436;99.370;2023-07-29T12:05:24;16.33;;;6.80;;
12601;SDS011;30282;16.436;99.370;2023-07-29T12:07:53;19.80;;;9.80;;
12601;SDS011;30282;16.436;99.370;2023-07-29T12:10:23;13.10;;;4.30;;
12601;SDS011;30282;16.436;99.370;2023-07-29T12:12:58;8.60;;;2.43;;
12601;SDS011;30282;16.436;99.370;2023-07-29T12:15:30;7.63;;;2.37;;
12601;SDS011;30282;16.436;99.370;2023-07-29T12:17:59;12.20;;;2.00;;
12601;SDS011;30282;16.436;99.370;2023-07-29T12:20:29;6.60;;;1.90;;
12601;SDS011;30282;16.436;99.370;2023-07-29T12:23:01;11.20;;;1.90;;
12601;SDS011;30282;16.436;99.370;2023-07-29T12:25:35;4.37;;;1.40;;
12601;SDS011;30282;16.436;99.370;2023-07-29T12:28:05;5.30;;;1.60;;
12601;SDS011;30282;16.436;99.370;2023-07-29T12:30:40;4.40;;;1.60;;
12601;SDS011;30282;16.436;99.370;2023-07-29T12:36:09;5.57;;;2.17;;
12601;SDS011;30282;16.436;99.370;2023-07-29T12:38:42;5.77;;;1.80;;
12601;SDS011;30282;16.436;99.370;2023-07-29T12:41:21;6.50;;;1.97;;
12601;SDS011;30282;16.436;99.370;2023-07-29T12:44:01;16.43;;;3.50;;
12601;SDS011;30282;16.436;99.370;2023-07-29T12:46:30;9.93;;;2.97;;
12601;SDS011;30282;16.436;99.370;2023-07-29T12:49:02;17.60;;;2.37;;
12601;SDS011;30282;16.436;99.370;2023-07-29T12:51:31;10.80;;;2.50;;
12601;SDS011;30282;16.436;99.370;2023-07-29T12:54:01;8.33;;;2.67;;
12601;SDS011;30282;16.436;99.370;2023-07-29T12:56:32;5.63;;;1.93;;
12601;SDS011;30282;16.436;99.370;2023-07-29T12:59:01;6.70;;;2.23;;
12601;SDS011;30282;16.436;99.370;2023-07-29T13:01:50;8.83;;;2.03;;
12601;SDS011;30282;16.436;99.370;2023-07-29T13:04:34;10.90;;;2.33;;
12601;SDS011;30282;16.436;99.370;2023-07-29T13:07:04;8.90;;;3.60;;
12601;SDS011;30282;16.436;99.370;2023-07-29T13:09:35;9.83;;;3.87;;
12601;SDS011;30282;16.436;99.370;2023-07-29T13:12:06;8.40;;;2.53;;
12601;SDS011;30282;16.436;99.370;2023-07-29T13:14:36;7.37;;;2.37;;
12601;SDS011;30282;16.436;99.370;2023-07-29T13:17:14;10.17;;;2.23;;
12601;SDS011;30282;16.436;99.370;2023-07-29T13:19:43;6.80;;;2.90;;
12601;SDS011;30282;16.436;99.370;2023-07-29T13:22:12;10.00;;;2.93;;
12601;SDS011;30282;16.436;99.370;2023-07-29T13:24:41;12.03;;;2.57;;
12601;SDS011;30282;16.436;99.370;2023-07-29T13:27:15;6.53;;;2.20;;
12601;SDS011;30282;16.436;99.370;2023-07-29T13:29:47;8.70;;;3.00;;
12601;SDS011;30282;16.436;99.370;2023-07-29T13:32:18;9.13;;;2.70;;
12601;SDS011;30282;16.436;99.370;2023-07-29T13:34:50;10.60;;;2.57;;
12601;SDS011;30282;16.436;99.370;2023-07-29T13:37:19;11.43;;;2.60;;
12601;SDS011;30282;16.436;99.370;2023-07-29T13:39:48;17.73;;;3.33;;
12601;SDS011;30282;16.436;99.370;2023-07-29T13:42:20;9.53;;;2.27;;
12601;SDS011;30282;16.436;99.370;2023-07-29T13:44:49;7.70;;;2.13;;
12601;SDS011;30282;16.436;99.370;2023-07-29T13:47:18;9.57;;;2.23;;
12601;SDS011;30282;16.436;99.370;2023-07-29T13:49:47;7.90;;;3.10;;
12601;SDS011;30282;16.436;99.370;2023-07-29T13:52:19;6.57;;;2.13;;
12601;SDS011;30282;16.436;99.370;2023-07-29T13:54:48;4.80;;;1.90;;
12601;SDS011;30282;16.436;99.370;2023-07-29T13:57:19;4.93;;;1.70;;
12601;SDS011;30282;16.436;99.370;2023-07-29T13:59:51;7.90;;;2.90;;
12601;SDS011;30282;16.436;99.370;2023-07-29T14:02:22;4.67;;;1.83;;
12601;SDS011;30282;16.436;99.370;2023-07-29T14:04:51;5.77;;;2.40;;
12601;SDS011;30282;16.436;99.370;2023-07-29T14:07:24;5.90;;;2.47;;
12601;SDS011;30282;16.436;99.370;2023-07-29T14:09:55;8.37;;;2.17;;
12601;SDS011;30282;16.436;99.370;2023-07-29T14:12:29;9.30;;;3.73;;
12601;SDS011;30282;16.436;99.370;2023-07-29T14:15:07;9.17;;;2.90;;
12601;SDS011;30282;16.436;99.370;2023-07-29T14:17:37;9.57;;;2.97;;
12601;SDS011;30282;16.436;99.370;2023-07-29T14:22:51;12.40;;;4.00;;
12601;SDS011;30282;16.436;99.370;2023-07-29T14:25:23;8.83;;;4.30;;
12601;SDS011;30282;16.436;99.370;2023-07-29T14:27:57;12.07;;;4.47;;
12601;SDS011;30282;16.436;99.370;2023-07-29T14:30:34;12.33;;;3.90;;
12601;SDS011;30282;16.436;99.370;2023-07-29T14:33:07;7.90;;;3.80;;
12601;SDS011;30282;16.436;99.370;2023-07-29T14:35:45;9.63;;;3.40;;
12601;SDS011;30282;16.436;99.370;2023-07-29T14:38:17;9.43;;;3.90;;
12601;SDS011;30282;16.436;99.370;2023-07-29T14:40:52;8.83;;;2.67;;
12601;SDS011;30282;16.436;99.370;2023-07-29T14:43:41;10.33;;;2.90;;
12601;SDS011;30282;16.436;99.370;2023-07-29T14:46:28;6.33;;;2.60;;
12601;SDS011;30282;16.436;99.370;2023-07-29T14:48:58;10.07;;;2.80;;
12601;SDS011;30282;16.436;99.370;2023-07-29T14:51:28;8.70;;;2.80;;
12601;SDS011;30282;16.436;99.370;2023-07-29T14:53:57;8.43;;;2.57;;
12601;SDS011;30282;16.436;99.370;2023-07-29T14:56:29;6.40;;;2.50;;
12601;SDS011;30282;16.436;99.370;2023-07-29T14:59:05;6.00;;;2.50;;
12601;SDS011;30282;16.436;99.370;2023-07-29T15:01:35;11.50;;;3.23;;
12601;SDS011;30282;16.436;99.370;2023-07-29T15:04:13;8.00;;;3.70;;
12601;SDS011;30282;16.436;99.370;2023-07-29T15:06:43;7.17;;;3.43;;